createdAt,value
2023-05-11T04:42:11.404Z,100319.25
2023-05-11T04:45:14.181Z,100323.69
2023-05-11T04:48:20.568Z,100332.19
2023-05-11T04:51:23.658Z,100326.97
2023-05-11T04:54:26.227Z,100336.16
2023-05-11T04:57:28.906Z,100335.47
2023-05-11T05:00:31.575Z,100337.72
2023-05-11T05:03:34.657Z,100333.25
2023-05-11T05:06:38.461Z,100338.34
2023-05-11T05:09:42.496Z,100336.72
2023-05-11T05:12:47.110Z,100336.00
2023-05-11T05:15:49.751Z,100332.47
2023-05-11T05:18:52.368Z,100336.59
2023-05-11T05:21:55.022Z,100336.56
2023-05-11T05:24:57.862Z,100340.84
2023-05-11T05:28:00.503Z,100339.47
2023-05-11T05:31:03.182Z,100340.19
2023-05-11T05:34:05.874Z,100349.56
2023-05-11T05:37:08.630Z,100351.50
2023-05-11T05:40:11.603Z,100345.34
2023-05-11T05:43:14.191Z,100352.47
2023-05-11T05:46:16.858Z,100349.53
2023-05-11T05:49:19.422Z,100352.44
2023-05-11T05:52:21.955Z,100343.16
2023-05-11T05:55:24.562Z,100350.16
2023-05-11T05:58:27.113Z,100357.09
2023-05-11T06:01:29.753Z,100358.44
2023-05-11T06:04:32.413Z,100344.19
2023-05-11T06:07:35.094Z,100354.63
2023-05-11T06:10:37.824Z,100354.91
2023-05-11T06:13:40.474Z,100356.94
2023-05-11T06:16:43.233Z,100354.06
2023-05-11T06:19:46.336Z,100354.56
2023-05-11T06:22:48.842Z,100350.19
2023-05-11T06:25:51.421Z,100342.53
2023-05-11T06:28:53.967Z,100342.63
2023-05-11T06:31:57.026Z,100345.37
2023-05-11T06:34:59.870Z,100345.75
2023-05-11T06:38:07.131Z,100350.22
2023-05-11T06:41:11.664Z,100346.59
2023-05-11T06:44:14.356Z,100348.72
2023-05-11T06:47:16.859Z,100349.31
2023-05-11T06:50:21.296Z,100347.75
2023-05-11T06:53:24.481Z,100351.09
2023-05-11T06:56:27.933Z,100346.63
2023-05-11T06:59:30.795Z,100353.00
2023-05-11T07:02:33.426Z,100348.50
2023-05-11T07:05:37.573Z,100345.81
2023-05-11T07:08:40.110Z,100341.28
2023-05-11T07:11:42.836Z,100335.59
2023-05-11T07:14:45.462Z,100331.13
2023-05-11T07:17:48.216Z,100326.28
2023-05-11T07:20:51.039Z,100331.16
2023-05-11T07:23:54.319Z,100325.19
2023-05-11T07:26:57.553Z,100316.00
2023-05-11T07:30:00.248Z,100325.00
2023-05-11T07:33:03.359Z,100328.81
2023-05-11T07:36:07.453Z,100329.31
2023-05-11T07:39:10.882Z,100331.28
2023-05-11T07:42:13.448Z,100332.94
2023-05-11T07:45:16.014Z,100331.41
2023-05-11T07:48:18.575Z,100328.09
2023-05-11T07:51:21.133Z,100331.41
2023-05-11T07:54:23.928Z,100326.88
2023-05-11T07:57:26.614Z,100327.97
2023-05-11T08:00:29.427Z,100338.19
2023-05-11T08:03:32.110Z,100336.34
2023-05-11T08:06:34.805Z,100329.38
2023-05-11T08:09:37.514Z,100337.50
2023-05-11T08:12:40.030Z,100331.59
2023-05-11T08:15:42.584Z,100338.53
2023-05-11T08:18:45.453Z,100330.59
2023-05-11T08:21:48.376Z,100323.66
2023-05-11T08:24:51.505Z,100317.19
2023-05-11T08:27:54.169Z,100311.91
2023-05-11T08:30:57.543Z,100317.22
2023-05-11T08:34:00.365Z,100307.47
2023-05-11T08:37:03.270Z,100303.78
2023-05-11T08:40:06.733Z,100299.81
2023-05-11T08:43:09.175Z,100299.75
2023-05-11T08:46:12.375Z,100292.88
2023-05-11T08:49:15.395Z,100296.09
2023-05-11T08:52:17.957Z,100286.09
2023-05-11T08:55:20.694Z,100291.28
2023-05-11T08:58:23.409Z,100298.66
2023-05-11T09:01:28.589Z,100281.91
2023-05-11T09:04:31.244Z,100287.50
2023-05-11T09:07:34.263Z,100282.38
2023-05-11T09:10:37.674Z,100285.88
2023-05-11T09:13:40.462Z,100275.22
2023-05-11T09:16:43.149Z,100281.59
2023-05-11T09:20:00.116Z,100266.72
2023-05-11T09:23:02.692Z,100272.25
2023-05-11T09:26:05.422Z,100269.72
2023-05-11T09:29:08.033Z,100265.72
2023-05-11T09:32:10.772Z,100264.88
2023-05-11T09:35:24.002Z,100269.69
2023-05-11T09:38:26.944Z,100268.13
2023-05-11T09:41:34.900Z,100260.87
2023-05-11T09:44:39.727Z,100254.37
2023-05-11T09:47:46.407Z,100261.69
2023-05-11T09:50:59.646Z,100253.28
2023-05-11T09:54:02.774Z,100249.78
2023-05-11T09:57:05.763Z,100251.69
2023-05-11T10:00:14.517Z,100250.72
2023-05-11T10:03:17.356Z,100249.31
2023-05-11T10:06:20.581Z,100247.63
2023-05-11T10:09:26.104Z,100247.00
2023-05-11T10:12:29.000Z,100236.59
2023-05-11T10:15:32.900Z,100239.34
2023-05-11T10:18:36.803Z,100244.75
2023-05-11T10:21:39.687Z,100235.47
2023-05-11T10:24:42.327Z,100227.97
2023-05-11T10:27:44.879Z,100230.87
2023-05-11T10:30:47.576Z,100225.16
2023-05-11T10:33:53.068Z,100221.78
2023-05-11T10:37:08.220Z,100227.41
2023-05-11T10:40:11.712Z,100220.37
2023-05-11T10:43:45.394Z,100211.38
2023-05-11T10:46:57.234Z,100204.47
2023-05-11T10:50:11.677Z,100203.94
2023-05-11T10:53:32.945Z,100203.97
2023-05-11T10:56:53.222Z,100199.34
2023-05-11T11:00:21.026Z,100193.44
2023-05-11T11:03:24.150Z,100191.81
2023-05-11T11:06:28.635Z,100199.59
2023-05-11T11:09:56.694Z,100182.34
2023-05-11T11:13:18.757Z,100184.81
2023-05-11T11:16:23.808Z,100199.84
2023-05-11T11:19:29.608Z,100185.69
2023-05-11T11:22:34.975Z,100191.12
2023-05-11T11:25:57.769Z,100178.41
2023-05-11T11:29:03.092Z,100186.28
2023-05-11T11:32:23.948Z,100180.53
2023-05-11T11:35:42.515Z,100177.38
2023-05-11T11:38:59.515Z,100162.59
2023-05-11T11:42:05.654Z,100172.09
2023-05-11T11:45:27.012Z,100176.69
2023-05-11T11:48:36.305Z,100175.00
2023-05-11T11:51:40.599Z,100172.16
2023-05-11T11:54:46.616Z,100164.62
2023-05-11T11:57:51.504Z,100166.84
2023-05-11T12:00:54.007Z,100169.34
2023-05-11T12:04:05.939Z,100161.06
2023-05-11T12:07:09.632Z,100157.56
2023-05-11T12:10:15.092Z,100169.94
2023-05-11T12:13:18.311Z,100156.31
2023-05-11T12:16:24.718Z,100149.22
2023-05-11T12:19:28.413Z,100165.13
2023-05-11T12:22:30.910Z,100166.34
2023-05-11T12:25:33.447Z,100158.94
2023-05-11T12:28:36.248Z,100145.91
2023-05-11T12:31:39.473Z,100151.31
2023-05-11T12:34:42.353Z,100144.34
2023-05-11T12:37:45.037Z,100129.28
2023-05-11T12:40:51.717Z,100133.84
2023-05-11T12:43:54.820Z,100133.81
2023-05-11T12:46:57.460Z,100125.78
2023-05-11T12:50:00.134Z,100117.25
2023-05-11T12:53:13.689Z,100117.34
2023-05-11T12:56:18.000Z,100107.97
2023-05-11T12:59:38.790Z,100110.09
2023-05-11T13:02:50.462Z,100105.16
2023-05-11T13:06:04.114Z,100102.59
2023-05-11T13:09:06.686Z,100099.38
2023-05-11T13:12:19.778Z,100100.22
2023-05-11T13:15:36.683Z,100094.63
2023-05-11T13:18:39.433Z,100088.63
2023-05-11T13:21:42.277Z,100088.66
2023-05-11T13:24:44.855Z,100083.06
2023-05-11T13:27:47.536Z,100081.03
2023-05-11T13:30:51.709Z,100077.06
2023-05-11T13:33:54.338Z,100081.16
2023-05-11T13:36:57.024Z,100089.94
2023-05-11T13:39:59.661Z,100074.59
2023-05-11T13:43:02.312Z,100085.56
2023-05-11T13:46:05.267Z,100075.44
2023-05-11T13:49:08.711Z,100079.34
2023-05-11T13:52:11.468Z,100063.25
2023-05-11T13:55:14.104Z,100064.94
2023-05-11T13:58:17.975Z,100064.72
2023-05-11T14:01:20.720Z,100066.25
2023-05-11T14:04:23.242Z,100066.63
2023-05-11T14:07:39.176Z,100062.94
2023-05-11T14:10:45.773Z,100054.97
2023-05-11T14:13:48.468Z,100055.56
2023-05-11T14:16:51.049Z,100062.25
2023-05-11T14:19:53.615Z,100053.44
2023-05-11T14:22:56.294Z,100051.13
2023-05-11T14:25:58.895Z,100051.34
2023-05-11T14:29:01.513Z,100053.72
2023-05-11T14:32:04.547Z,100050.16
2023-05-11T14:35:07.369Z,100050.44
2023-05-11T14:38:10.517Z,100046.56
2023-05-11T14:41:13.213Z,100038.53
2023-05-11T14:44:16.234Z,100049.38
2023-05-11T14:47:18.861Z,100045.53
2023-05-11T14:50:21.463Z,100042.78
2023-05-11T14:53:24.111Z,100041.84
2023-05-11T14:56:26.759Z,100048.28
2023-05-11T14:59:29.314Z,100044.03
2023-05-11T15:02:31.924Z,100054.31
2023-05-11T15:05:34.950Z,100047.06
